This is the latest recevied weather packets stored in our database for station/object DL0BB-10. If no packets are shown the sender has not sent any weather packets the latest 10 day(s).
| Time | Temp. | Humidity | Pressure | Rain* | Wind** | Luminosity | Snow |
|---|---|---|---|---|---|---|---|
| 1787994877 | 25° C | 42% | 1017.2 hPa | - | - | - | - |
| 1787993977 | 25.56° C | 41% | 1017.2 hPa | - | - | - | - |
| 1787993082 | 26.11° C | 39% | 1017.4 hPa | - | - | - | - |
| 1787992182 | 25.56° C | 41% | 1017.4 hPa | - | - | - | - |
| 1787991281 | 25° C | 42% | 1017.4 hPa | - | - | - | - |
| 1787990381 | 25.56° C | 41% | 1017.5 hPa | - | - | - | - |
| 1787989481 | 25.56° C | 40% | 1017.6 hPa | - | - | - | - |
| 1787988581 | 25° C | 41% | 1017.5 hPa | - | - | - | - |
| 1787987681 | 25° C | 42% | 1017.6 hPa | - | - | - | - |
| 1787986780 | 25° C | 41% | 1017.5 hPa | - | - | - | - |
| 1787985880 | 25.56° C | 40% | 1017.5 hPa | - | - | - | - |
| 1787984980 | 25° C | 42% | 1017.5 hPa | - | - | - | - |
| 1787984080 | 25° C | 42% | 1017.4 hPa | - | - | - | - |
| 1787983180 | 25° C | 42% | 1017.4 hPa | - | - | - | - |
| 1787982280 | 25.56° C | 40% | 1017.4 hPa | - | - | - | - |
| 1787981380 | 25° C | 43% | 1017.4 hPa | - | - | - | - |
| 1787980479 | 25° C | 43% | 1017.3 hPa | - | - | - | - |
| 1787979579 | 25.56° C | 42% | 1017.3 hPa | - | - | - | - |
| 1787978679 | 26.11° C | 41% | 1017.2 hPa | - | - | - | - |
| 1787977778 | 25° C | 43% | 1017.3 hPa | - | - | - | - |
| 1787976877 | 25° C | 43% | 1017.4 hPa | - | - | - | - |
| 1787975976 | 25.56° C | 42% | 1017.3 hPa | - | - | - | - |
| 1787975076 | 26.11° C | 41% | 1017.2 hPa | - | - | - | - |
| 1787974176 | 25° C | 43% | 1017.3 hPa | - | - | - | - |
| 1787973276 | 25° C | 43% | 1017.2 hPa | - | - | - | - |
* Rain since midnight (hover to see other rain measurements)
** Current wind speed in m/s (hover to see current wind gust speed)